Inman, KS (67546)

9:18 PM CDT on October 22, 2014 (GMT -0500)
Inman | Change Station
CLOSE
Current Station
Personal Weather Station
Location: Inman, KS
Elevation: 1526 ft
Nearby Weather Stations

Elev 1526 ft 38.23 °N, 97.77 °W | Updated 2 minutes ago

Rain
Rain
62.8 °F
Feels Like 62.8 °F
N
1.0
Wind Variable Wind from SSW
Gusts 2.0 mph

Today
High -- | Low -- °F
--% Chance of Precip.
Yesterday
High -- | Low -- °F
Precip. -- in
7:46 AM 6:43 PM
Waning Crescent, 1% visible
Pressure 30.03 in
Visibility 8.0 miles
Clouds Overcast 10000 ft
Dew Point 62 °F
Humidity 98%
Rainfall 0.04 in
Snow Depth Not available.
UV 0 out of 12
Pollen 3.60 out of 12
Air Quality Not available.
Flu Activity No Activity
METAR KHUT 230152Z 16003KT 8SM -RA OVC100 17/15 A3007 RMK AO2 RAE0058B15 SLP169 P0000 T01720150

More Conditions Fewer Conditions

Pressure 30.03 in
Visibility 8.0 miles
Clouds Overcast 10000 ft
Dew Point 62 °F
Humidity 98%
Rainfall 0.04 in
Snow Depth Not available.
UV 0 out of 12
Pollen 3.60 out of 12
Air Quality Not available.
Flu Activity No Activity
METAR KHUT 230152Z 16003KT 8SM -RA OVC100 17/15 A3007 RMK AO2 RAE0058B15 SLP169 P0000 T01720150

More Conditions Fewer Conditions

10-Day Weather Forecast

Almanac

Astronomy

Oct. 22, 2014 Rise Set
Actual Time 7:46 AM CDT 6:43 PM CDT
Civil Twilight 7:19 AM CDT 7:10 PM CDT
Nautical Twilight 6:49 AM CDT 7:41 PM CDT
Astronomical Twilight 6:18 AM CDT 8:11 PM CDT
Moon 6:30 AM CDT (10/22) 6:10 PM CDT (10/22)
Length of Visible Light 11h 50m
Length of Day
10h 56m
Tomorrow will be 2m 19s shorter.
Waning Crescent, 1% of the Moon is Illuminated
Today
Waning Crescent
Oct 23
New
Oct 30
First Quarter
Nov 6
Full
Nov 14
Last Quarter

Today's Extremes

State Highs State Lows

Community

WunderPhotos

Upload Photos

1,764,109 photos uploaded!

Nearby

Snow Depth

Station Depth Elevation
No new snow has been reported.

Earthquake Activity

City Distance Mag. Time & Date
Anthony, Kansas 82 miles 3.3 6:48 PM CDT
2014-10-22
Mooreland, Oklahoma 136 miles 2.8 5:31 PM CDT
2014-10-22
Mooreland, Oklahoma 139 miles 2.5 11:19 AM CDT
2014-10-22
Mooreland, Oklahoma 137 miles 2.8 11:04 AM CDT
2014-10-22
Minimum magnitude displayed is 2.5.

Coastal Water Temperatures

Place Temperature
No Stations Reporting

Nearby Weather Stations